Time;durP1;ratioP1;P1;durP2;ratioP2;P2;SDS_P1;SDS_P2;PMS_P1;PMS_P2;Temp;Humidity;BMP_temperature;BMP_pressure;BME280_temperature;BME280_humidity;BME280_pressure;Samples;Min_cycle;Max_cycle;Signal;HPM_P1;HPM_P2
2023/07/13 00:00:22;;;;;;;8.85;1.92;;;;;;;;;;5016013;28;20053;-71
2023/07/13 00:02:48;;;;;;;4.78;1.80;;;;;;;;;;5028665;28;20033;-71
2023/07/13 00:05:13;;;;;;;8.18;1.85;;;;;;;;;;5029329;28;20088;-70
2023/07/13 00:07:38;;;;;;;7.55;1.73;;;;;;;;;;5031687;28;20065;-70
2023/07/13 00:10:05;;;;;;;5.07;1.60;;;;;;;;;;5045118;28;20029;-70
2023/07/13 00:12:35;;;;;;;6.72;1.73;;;;;;;;;;5055167;28;20535;-71
2023/07/13 00:15:07;;;;;;;4.72;1.95;;;;;;;;;;5050129;28;20777;-71
2023/07/13 00:17:32;;;;;;;6.90;1.73;;;;;;;;;;5048135;28;20029;-71
2023/07/13 00:19:58;;;;;;;6.20;1.80;;;;;;;;;;5048159;28;20086;-71
2023/07/13 00:22:25;;;;;;;3.83;1.85;;;;;;;;;;5047469;28;20056;-71
2023/07/13 00:24:52;;;;;;;6.85;2.13;;;;;;;;;;5047289;28;20037;-71
2023/07/13 00:27:18;;;;;;;6.95;1.88;;;;;;;;;;5036014;28;20578;-71
2023/07/13 00:29:44;;;;;;;5.13;2.00;;;;;;;;;;5027288;28;20088;-71
2023/07/13 00:32:11;;;;;;;4.53;2.00;;;;;;;;;;5027636;28;20017;-71
2023/07/13 00:34:37;;;;;;;5.93;2.05;;;;;;;;;;5026682;28;20029;-70
2023/07/13 00:37:03;;;;;;;4.88;2.30;;;;;;;;;;5026676;28;20124;-71
2023/07/13 00:39:28;;;;;;;5.47;1.88;;;;;;;;;;5027619;28;20132;-71
2023/07/13 00:41:54;;;;;;;8.80;2.17;;;;;;;;;;5026394;28;20030;-71
2023/07/13 00:44:23;;;;;;;7.70;2.38;;;;;;;;;;5027405;28;20056;-71
2023/07/13 00:46:48;;;;;;;5.93;2.33;;;;;;;;;;5028259;28;20017;-71
2023/07/13 00:49:22;;;;;;;4.57;2.00;;;;;;;;;;5027482;28;20483;-71
2023/07/13 00:51:58;;;;;;;3.70;1.80;;;;;;;;;;5027824;28;20038;-71
2023/07/13 00:54:41;;;;;;;5.68;2.10;;;;;;;;;;5027266;28;20037;-71
2023/07/13 00:57:10;;;;;;;5.68;1.95;;;;;;;;;;5027238;28;20033;-70
2023/07/13 00:59:37;;;;;;;4.10;1.77;;;;;;;;;;5027532;28;20033;-70
2023/07/13 01:02:03;;;;;;;6.18;2.00;;;;;;;;;;5026159;28;20772;-71
2023/07/13 01:04:29;;;;;;;7.13;2.25;;;;;;;;;;5027530;28;20028;-70
2023/07/13 01:06:55;;;;;;;9.65;2.60;;;;;;;;;;5027041;28;20042;-70
2023/07/13 01:09:21;;;;;;;11.60;3.45;;;;;;;;;;5026821;28;20049;-71
2023/07/13 01:11:47;;;;;;;8.27;2.30;;;;;;;;;;5027324;28;20036;-71
2023/07/13 01:14:13;;;;;;;4.05;1.90;;;;;;;;;;5027192;28;20033;-70
2023/07/13 01:16:41;;;;;;;6.88;1.92;;;;;;;;;;5026919;28;20017;-71
2023/07/13 01:19:29;;;;;;;5.53;2.17;;;;;;;;;;5027079;28;20116;-70
2023/07/13 01:21:55;;;;;;;6.55;2.42;;;;;;;;;;5025657;28;20093;-71
2023/07/13 01:24:20;;;;;;;5.97;2.60;;;;;;;;;;5027312;28;20490;-71
2023/07/13 01:26:46;;;;;;;7.50;2.13;;;;;;;;;;5021349;28;20042;-70
2023/07/13 01:29:11;;;;;;;4.55;1.90;;;;;;;;;;5026733;28;20037;-70
2023/07/13 01:31:36;;;;;;;9.80;2.60;;;;;;;;;;5028304;28;20022;-71
2023/07/13 01:34:01;;;;;;;6.75;2.63;;;;;;;;;;5030205;28;20393;-70
2023/07/13 01:36:27;;;;;;;5.68;2.47;;;;;;;;;;5040760;28;20041;-70
2023/07/13 01:38:52;;;;;;;7.65;2.42;;;;;;;;;;5033526;28;20029;-70
2023/07/13 01:41:18;;;;;;;6.95;2.90;;;;;;;;;;5026685;28;20117;-71
2023/07/13 01:43:43;;;;;;;9.27;2.35;;;;;;;;;;5029731;28;20486;-71
2023/07/13 01:46:08;;;;;;;10.02;2.70;;;;;;;;;;5036190;28;20052;-70
2023/07/13 01:48:33;;;;;;;5.10;2.42;;;;;;;;;;5026562;28;20038;-71
2023/07/13 01:50:59;;;;;;;7.40;2.60;;;;;;;;;;5025768;28;20047;-71
2023/07/13 01:53:24;;;;;;;5.20;2.30;;;;;;;;;;5038095;28;20029;-71
2023/07/13 01:55:50;;;;;;;11.38;2.70;;;;;;;;;;5027519;28;20105;-71
2023/07/13 01:58:15;;;;;;;7.25;3.05;;;;;;;;;;5025795;28;20040;-71
2023/07/13 02:00:40;;;;;;;7.88;2.60;;;;;;;;;;5025657;28;20411;-70
2023/07/13 02:03:05;;;;;;;5.03;2.28;;;;;;;;;;5026610;28;20040;-71
2023/07/13 02:05:31;;;;;;;4.55;2.20;;;;;;;;;;5024330;28;20052;-70
2023/07/13 02:07:56;;;;;;;7.05;2.60;;;;;;;;;;5026696;28;20037;-70
2023/07/13 02:10:22;;;;;;;9.77;2.60;;;;;;;;;;5035851;28;20029;-71
2023/07/13 02:12:49;;;;;;;3.83;2.50;;;;;;;;;;5026759;28;20629;-70
2023/07/13 02:15:14;;;;;;;9.15;2.58;;;;;;;;;;5036621;28;20029;-70
2023/07/13 02:17:39;;;;;;;4.70;2.67;;;;;;;;;;5041165;28;20038;-70
2023/07/13 02:20:06;;;;;;;7.20;2.75;;;;;;;;;;5028302;28;20028;-70
2023/07/13 02:22:31;;;;;;;6.68;2.80;;;;;;;;;;5026286;28;20025;-70
2023/07/13 02:24:57;;;;;;;7.35;2.47;;;;;;;;;;5025536;28;20040;-71
2023/07/13 02:27:22;;;;;;;7.28;2.78;;;;;;;;;;5025738;28;20044;-71
2023/07/13 02:29:47;;;;;;;7.88;2.78;;;;;;;;;;5025713;28;20047;-71
2023/07/13 02:32:13;;;;;;;7.03;2.38;;;;;;;;;;5025448;28;20136;-71
2023/07/13 02:34:38;;;;;;;6.35;2.63;;;;;;;;;;5026662;28;20021;-70
2023/07/13 02:37:04;;;;;;;7.85;2.55;;;;;;;;;;5025620;28;20112;-71
2023/07/13 02:39:32;;;;;;;9.38;3.30;;;;;;;;;;5025866;28;20030;-70
2023/07/13 02:41:58;;;;;;;8.05;2.45;;;;;;;;;;5024202;28;20033;-70
2023/07/13 02:44:23;;;;;;;7.28;2.45;;;;;;;;;;5023888;28;20140;-71
2023/07/13 02:46:48;;;;;;;7.57;2.95;;;;;;;;;;5029107;28;20021;-70
2023/07/13 02:49:14;;;;;;;6.32;2.63;;;;;;;;;;5036077;28;20041;-70
2023/07/13 02:51:39;;;;;;;8.23;2.80;;;;;;;;;;5024386;28;20641;-70
2023/07/13 02:54:05;;;;;;;10.70;2.83;;;;;;;;;;5026016;28;20034;-71
2023/07/13 02:56:31;;;;;;;7.55;2.70;;;;;;;;;;5026799;28;20100;-70
2023/07/13 02:58:57;;;;;;;6.32;2.78;;;;;;;;;;5030477;28;20056;-70
2023/07/13 03:01:23;;;;;;;9.18;2.97;;;;;;;;;;5035678;28;20080;-71
2023/07/13 03:03:50;;;;;;;5.15;2.25;;;;;;;;;;5031578;28;20140;-70
2023/07/13 03:06:16;;;;;;;9.50;3.22;;;;;;;;;;5026335;28;20049;-70
2023/07/13 03:08:42;;;;;;;7.88;2.20;;;;;;;;;;5025976;28;20593;-71
2023/07/13 03:11:11;;;;;;;8.50;2.90;;;;;;;;;;5025050;28;20021;-71
2023/07/13 03:13:37;;;;;;;9.45;2.58;;;;;;;;;;5026237;28;20053;-71
2023/07/13 03:16:04;;;;;;;7.20;2.22;;;;;;;;;;5024884;28;20061;-70
2023/07/13 03:18:29;;;;;;;6.85;2.83;;;;;;;;;;5023843;28;20127;-71
2023/07/13 03:20:55;;;;;;;8.80;3.13;;;;;;;;;;5025525;28;20059;-70
2023/07/13 03:23:22;;;;;;;6.85;2.38;;;;;;;;;;5033764;28;20408;-70
2023/07/13 03:25:48;;;;;;;8.55;2.70;;;;;;;;;;5028110;28;20061;-70
2023/07/13 03:28:14;;;;;;;7.82;2.67;;;;;;;;;;5027813;28;20717;-70
2023/07/13 03:30:40;;;;;;;6.85;2.65;;;;;;;;;;5026503;28;20042;-70
2023/07/13 03:33:05;;;;;;;6.35;3.00;;;;;;;;;;5028094;28;20052;-71
2023/07/13 03:35:32;;;;;;;6.82;2.38;;;;;;;;;;5027437;28;20045;-70
2023/07/13 03:37:58;;;;;;;4.55;2.40;;;;;;;;;;5027766;28;20040;-70
2023/07/13 03:40:25;;;;;;;7.47;2.53;;;;;;;;;;5027672;28;20028;-70
2023/07/13 03:42:50;;;;;;;6.50;2.83;;;;;;;;;;5027588;28;20529;-70
2023/07/13 03:45:15;;;;;;;7.30;2.70;;;;;;;;;;5040463;28;20506;-71
2023/07/13 03:47:40;;;;;;;6.53;2.67;;;;;;;;;;5027583;28;20041;-71
2023/07/13 03:50:06;;;;;;;9.32;2.78;;;;;;;;;;5027285;28;20057;-70
2023/07/13 03:52:32;;;;;;;7.50;3.08;;;;;;;;;;5027694;28;20027;-71
2023/07/13 03:54:57;;;;;;;9.32;3.28;;;;;;;;;;5027244;28;20172;-70
2023/07/13 03:57:23;;;;;;;9.77;2.90;;;;;;;;;;5027278;28;20498;-70
2023/07/13 03:59:48;;;;;;;7.85;2.90;;;;;;;;;;5027822;28;20044;-71
2023/07/13 04:02:13;;;;;;;8.68;3.15;;;;;;;;;;5027080;28;20147;-70
2023/07/13 04:04:40;;;;;;;9.32;3.47;;;;;;;;;;5027227;28;20056;-71
2023/07/13 04:07:07;;;;;;;12.82;2.97;;;;;;;;;;5027167;28;20474;-70
2023/07/13 04:09:32;;;;;;;7.47;2.75;;;;;;;;;;5059196;28;20038;-70
2023/07/13 04:11:57;;;;;;;9.30;2.85;;;;;;;;;;5026557;28;20052;-71
2023/07/13 04:14:23;;;;;;;9.23;2.72;;;;;;;;;;5013759;28;20567;-70
2023/07/13 04:16:48;;;;;;;12.95;3.13;;;;;;;;;;5027695;28;20022;-70
2023/07/13 04:19:13;;;;;;;9.13;2.75;;;;;;;;;;5027651;28;20044;-70
2023/07/13 04:21:39;;;;;;;11.30;2.97;;;;;;;;;;5027822;28;20800;-70
2023/07/13 04:24:04;;;;;;;11.43;2.80;;;;;;;;;;5031206;28;20052;-70
2023/07/13 04:26:30;;;;;;;11.05;2.72;;;;;;;;;;5035317;28;20523;-71
2023/07/13 04:28:55;;;;;;;12.18;2.40;;;;;;;;;;5031263;28;20056;-71
2023/07/13 04:31:21;;;;;;;5.85;2.78;;;;;;;;;;5026965;28;20068;-70
2023/07/13 04:33:47;;;;;;;8.80;2.80;;;;;;;;;;5026331;28;20038;-71
2023/07/13 04:36:12;;;;;;;5.45;2.30;;;;;;;;;;5025157;28;20030;-70
2023/07/13 04:38:38;;;;;;;8.30;2.72;;;;;;;;;;5026791;28;20547;-71
2023/07/13 04:41:06;;;;;;;6.55;2.70;;;;;;;;;;5026681;28;20021;-70
2023/07/13 04:43:32;;;;;;;8.77;2.92;;;;;;;;;;5028816;28;20023;-70
2023/07/13 04:46:06;;;;;;;10.98;3.58;;;;;;;;;;5068150;28;20144;-70
2023/07/13 04:48:31;;;;;;;12.10;3.10;;;;;;;;;;5037943;28;20069;-70
2023/07/13 04:50:58;;;;;;;7.43;2.78;;;;;;;;;;5045732;28;20033;-70
2023/07/13 04:53:24;;;;;;;11.65;3.28;;;;;;;;;;5046416;28;20502;-70
2023/07/13 04:55:50;;;;;;;7.28;2.47;;;;;;;;;;5046455;28;20154;-70
2023/07/13 04:58:15;;;;;;;9.50;2.65;;;;;;;;;;5045865;28;20518;-70
2023/07/13 05:00:40;;;;;;;9.95;3.28;;;;;;;;;;5031800;28;20560;-70
2023/07/13 05:03:06;;;;;;;10.45;2.40;;;;;;;;;;5026382;28;21053;-70
2023/07/13 05:05:31;;;;;;;6.57;2.63;;;;;;;;;;5025984;28;20052;-70
2023/07/13 05:07:56;;;;;;;5.28;2.42;;;;;;;;;;5026492;28;20029;-70
2023/07/13 05:10:23;;;;;;;9.32;3.00;;;;;;;;;;5025800;28;20132;-70
2023/07/13 05:12:48;;;;;;;8.30;2.25;;;;;;;;;;5024465;28;20036;-70
2023/07/13 05:15:14;;;;;;;7.53;2.40;;;;;;;;;;5025373;28;20033;-70
2023/07/13 05:17:40;;;;;;;7.97;2.78;;;;;;;;;;5025592;28;20556;-71
2023/07/13 05:20:07;;;;;;;7.05;2.53;;;;;;;;;;5024652;28;20076;-70
2023/07/13 05:22:32;;;;;;;7.97;3.30;;;;;;;;;;5038963;28;20036;-70
2023/07/13 05:24:57;;;;;;;8.40;2.53;;;;;;;;;;5025868;28;20038;-70
2023/07/13 05:27:23;;;;;;;11.73;2.85;;;;;;;;;;5025561;28;20067;-71
2023/07/13 05:29:49;;;;;;;9.80;2.88;;;;;;;;;;5024493;28;20030;-70
2023/07/13 05:32:15;;;;;;;7.13;2.47;;;;;;;;;;5025345;28;20033;-70
2023/07/13 05:34:40;;;;;;;10.98;3.22;;;;;;;;;;5026176;28;20028;-70
2023/07/13 05:37:05;;;;;;;7.25;2.90;;;;;;;;;;5024588;28;20069;-70
2023/07/13 05:39:31;;;;;;;8.18;2.40;;;;;;;;;;5024405;28;20045;-70
2023/07/13 05:41:56;;;;;;;11.75;2.67;;;;;;;;;;5023747;28;20057;-70
2023/07/13 05:44:21;;;;;;;6.72;2.58;;;;;;;;;;5012275;28;20537;-70
2023/07/13 05:46:47;;;;;;;10.27;2.65;;;;;;;;;;5022360;28;20013;-71
2023/07/13 05:49:12;;;;;;;8.70;2.92;;;;;;;;;;5023443;28;20056;-70
2023/07/13 05:51:37;;;;;;;7.40;2.90;;;;;;;;;;5032729;28;20033;-70
2023/07/13 05:54:03;;;;;;;6.78;2.10;;;;;;;;;;5033016;28;20029;-71
2023/07/13 05:56:28;;;;;;;14.73;2.90;;;;;;;;;;5027482;28;20030;-70
2023/07/13 05:58:54;;;;;;;8.15;2.70;;;;;;;;;;5026268;28;20048;-70
2023/07/13 06:01:20;;;;;;;7.93;3.20;;;;;;;;;;5024724;28;20160;-70
2023/07/13 06:03:46;;;;;;;7.15;2.65;;;;;;;;;;5024144;28;20745;-70
2023/07/13 06:06:12;;;;;;;6.60;2.53;;;;;;;;;;5024946;28;20095;-70
2023/07/13 06:08:38;;;;;;;7.90;2.30;;;;;;;;;;5021399;28;20447;-70
2023/07/13 06:11:04;;;;;;;8.10;2.65;;;;;;;;;;5022453;28;20037;-70
2023/07/13 06:13:30;;;;;;;8.45;2.55;;;;;;;;;;5025036;28;20041;-70
2023/07/13 06:15:55;;;;;;;11.25;2.78;;;;;;;;;;5024276;28;20042;-70
2023/07/13 06:18:20;;;;;;;9.10;2.72;;;;;;;;;;5023505;28;20136;-70
2023/07/13 06:20:46;;;;;;;9.50;3.30;;;;;;;;;;5024510;28;20079;-70
2023/07/13 06:23:11;;;;;;;9.57;2.80;;;;;;;;;;5024392;28;20140;-70
2023/07/13 06:25:36;;;;;;;7.05;2.33;;;;;;;;;;5024398;28;20021;-70
2023/07/13 06:28:02;;;;;;;9.13;2.90;;;;;;;;;;5024561;28;20033;-70
2023/07/13 06:30:27;;;;;;;10.77;2.75;;;;;;;;;;5024506;28;20037;-70
2023/07/13 06:32:53;;;;;;;9.65;2.55;;;;;;;;;;5024034;28;20034;-70
2023/07/13 06:35:18;;;;;;;11.55;2.90;;;;;;;;;;5024880;28;20120;-70
2023/07/13 06:37:43;;;;;;;7.63;2.08;;;;;;;;;;5022803;28;20070;-71
2023/07/13 06:40:09;;;;;;;8.70;2.60;;;;;;;;;;5021276;28;20034;-71
2023/07/13 06:42:34;;;;;;;6.25;2.90;;;;;;;;;;5021471;28;20037;-70
2023/07/13 06:45:00;;;;;;;6.97;2.58;;;;;;;;;;5035954;28;20041;-70
2023/07/13 06:47:25;;;;;;;7.38;2.42;;;;;;;;;;5025120;28;20155;-70
2023/07/13 06:49:50;;;;;;;6.75;2.50;;;;;;;;;;5025953;28;20094;-70
2023/07/13 06:52:16;;;;;;;8.00;3.00;;;;;;;;;;5024028;28;20860;-71
2023/07/13 06:54:41;;;;;;;9.15;2.53;;;;;;;;;;5023476;28;20072;-70
2023/07/13 06:57:07;;;;;;;9.52;2.95;;;;;;;;;;5024363;28;20025;-70
2023/07/13 06:59:32;;;;;;;11.95;2.72;;;;;;;;;;5026029;28;20333;-71
2023/07/13 07:01:58;;;;;;;11.50;2.83;;;;;;;;;;5029127;28;20033;-70
2023/07/13 07:04:23;;;;;;;6.43;2.65;;;;;;;;;;5029137;28;20488;-71
2023/07/13 07:06:48;;;;;;;8.43;2.65;;;;;;;;;;5028563;28;20095;-72
2023/07/13 07:09:16;;;;;;;11.13;3.28;;;;;;;;;;5029195;28;20033;-70
2023/07/13 07:11:42;;;;;;;10.77;2.95;;;;;;;;;;5029324;28;20033;-70
2023/07/13 07:14:07;;;;;;;7.95;2.55;;;;;;;;;;5030596;28;20024;-70
2023/07/13 07:16:33;;;;;;;4.13;2.38;;;;;;;;;;5036300;28;20018;-70
2023/07/13 07:18:58;;;;;;;7.22;2.55;;;;;;;;;;5030657;28;20063;-70
2023/07/13 07:21:23;;;;;;;8.27;2.65;;;;;;;;;;5017173;28;20048;-70
2023/07/13 07:23:49;;;;;;;9.75;2.95;;;;;;;;;;5020662;28;20033;-70
2023/07/13 07:26:14;;;;;;;10.45;3.03;;;;;;;;;;5023375;28;20036;-71
2023/07/13 07:28:40;;;;;;;6.93;2.85;;;;;;;;;;5027091;28;20018;-70
2023/07/13 07:31:06;;;;;;;8.60;2.50;;;;;;;;;;5025952;28;20030;-71
2023/07/13 07:33:33;;;;;;;5.75;2.45;;;;;;;;;;5024557;28;20040;-70
2023/07/13 07:35:59;;;;;;;9.35;3.15;;;;;;;;;;5020405;28;20033;-70
2023/07/13 07:38:24;;;;;;;5.70;2.70;;;;;;;;;;5025043;28;20367;-70
2023/07/13 07:40:49;;;;;;;9.10;2.78;;;;;;;;;;5023908;28;20171;-71
2023/07/13 07:43:15;;;;;;;8.07;2.63;;;;;;;;;;5021125;28;20090;-70
2023/07/13 07:45:40;;;;;;;9.38;3.10;;;;;;;;;;5018258;28;20038;-71
2023/07/13 07:48:07;;;;;;;8.88;2.50;;;;;;;;;;5020318;28;20045;-70
2023/07/13 07:50:33;;;;;;;9.32;2.58;;;;;;;;;;5017214;28;20094;-70
2023/07/13 07:52:58;;;;;;;14.65;2.70;;;;;;;;;;5025963;28;20036;-70
2023/07/13 07:55:26;;;;;;;7.60;2.95;;;;;;;;;;5028049;28;20025;-71
2023/07/13 07:57:52;;;;;;;7.20;2.67;;;;;;;;;;5019391;28;20854;-70
2023/07/13 08:00:18;;;;;;;11.27;2.83;;;;;;;;;;5021924;28;20065;-69
2023/07/13 08:02:44;;;;;;;6.57;2.95;;;;;;;;;;5018753;28;20515;-69
2023/07/13 08:05:10;;;;;;;7.85;2.55;;;;;;;;;;5021797;28;20522;-69
2023/07/13 08:07:37;;;;;;;9.95;2.88;;;;;;;;;;5024625;28;20045;-69
2023/07/13 08:10:03;;;;;;;11.20;3.35;;;;;;;;;;5027395;28;20033;-70
2023/07/13 08:12:28;;;;;;;6.75;2.55;;;;;;;;;;5027751;28;20029;-69
2023/07/13 08:14:53;;;;;;;8.00;2.80;;;;;;;;;;5027107;28;20037;-69
2023/07/13 08:17:20;;;;;;;9.55;3.05;;;;;;;;;;5026201;28;20038;-69
2023/07/13 08:19:45;;;;;;;7.80;2.42;;;;;;;;;;5026600;28;20033;-69
2023/07/13 08:22:11;;;;;;;8.55;2.45;;;;;;;;;;5036070;28;20037;-69
2023/07/13 08:24:36;;;;;;;9.55;2.72;;;;;;;;;;5019081;28;20090;-69
2023/07/13 08:27:01;;;;;;;5.13;2.50;;;;;;;;;;5020663;28;20073;-69
2023/07/13 08:29:27;;;;;;;9.80;2.72;;;;;;;;;;5026186;28;20034;-69
2023/07/13 08:31:52;;;;;;;6.05;2.55;;;;;;;;;;5026823;28;20037;-69
2023/07/13 08:34:17;;;;;;;7.07;2.83;;;;;;;;;;5026514;28;20041;-67
2023/07/13 08:36:43;;;;;;;12.15;3.40;;;;;;;;;;5026874;28;20040;-68
2023/07/13 08:39:08;;;;;;;4.15;2.67;;;;;;;;;;5029590;28;20037;-68
2023/07/13 08:41:35;;;;;;;4.97;2.88;;;;;;;;;;5036854;28;20037;-68
2023/07/13 08:44:02;;;;;;;7.18;2.65;;;;;;;;;;5041529;28;20636;-69
2023/07/13 08:46:37;;;;;;;6.95;2.85;;;;;;;;;;5065094;28;20029;-69
2023/07/13 08:49:09;;;;;;;8.82;3.58;;;;;;;;;;5021969;28;20107;-69
2023/07/13 08:51:44;;;;;;;8.40;2.60;;;;;;;;;;5020504;28;20045;-68
2023/07/13 08:54:21;;;;;;;4.97;2.45;;;;;;;;;;5020473;28;20057;-68
2023/07/13 08:56:50;;;;;;;9.55;3.10;;;;;;;;;;5018479;28;20106;-69
2023/07/13 08:59:18;;;;;;;7.47;3.00;;;;;;;;;;5009157;28;20033;-69
2023/07/13 09:02:14;;;;;;;6.20;2.88;;;;;;;;;;5024920;28;20569;-69
2023/07/13 09:04:42;;;;;;;9.27;2.53;;;;;;;;;;5024855;28;20041;-69
2023/07/13 09:07:26;;;;;;;6.30;2.90;;;;;;;;;;5024272;28;20057;-69
2023/07/13 09:10:16;;;;;;;8.27;2.72;;;;;;;;;;5019377;28;20069;-69
2023/07/13 09:13:17;;;;;;;10.43;2.95;;;;;;;;;;5021293;28;20048;-69
2023/07/13 09:15:47;;;;;;;9.15;3.22;;;;;;;;;;5020007;28;20037;-69
2023/07/13 09:18:33;;;;;;;8.60;2.88;;;;;;;;;;5024209;28;20415;-69
2023/07/13 09:21:13;;;;;;;6.20;2.60;;;;;;;;;;5010673;28;20114;-68
2023/07/13 09:23:39;;;;;;;9.30;2.88;;;;;;;;;;5024552;28;20033;-69
2023/07/13 09:26:15;;;;;;;5.25;2.20;;;;;;;;;;5022505;28;20388;-69
2023/07/13 09:28:43;;;;;;;9.20;2.90;;;;;;;;;;5024579;28;20486;-69
2023/07/13 09:31:24;;;;;;;12.00;2.92;;;;;;;;;;5023512;28;20095;-68
2023/07/13 09:33:50;;;;;;;8.52;3.33;;;;;;;;;;5024417;28;20044;-69
2023/07/13 09:36:28;;;;;;;8.30;2.60;;;;;;;;;;5023829;28;20463;-69
2023/07/13 09:39:08;;;;;;;9.88;3.00;;;;;;;;;;5023925;28;20852;-69
2023/07/13 09:41:46;;;;;;;5.80;2.75;;;;;;;;;;5024046;28;20111;-69
2023/07/13 09:44:15;;;;;;;7.28;3.28;;;;;;;;;;5031199;28;20033;-69
2023/07/13 09:46:53;;;;;;;9.80;3.83;;;;;;;;;;5027574;28;20065;-69
2023/07/13 09:49:18;;;;;;;7.50;3.15;;;;;;;;;;5021544;28;20536;-69
2023/07/13 09:51:44;;;;;;;6.82;2.78;;;;;;;;;;5022278;28;20041;-69
2023/07/13 09:54:24;;;;;;;8.38;3.13;;;;;;;;;;5017359;28;20041;-69
2023/07/13 09:56:58;;;;;;;7.88;3.10;;;;;;;;;;5017400;28;20041;-69
2023/07/13 09:59:30;;;;;;;8.13;3.00;;;;;;;;;;5015960;28;20045;-69
2023/07/13 10:01:55;;;;;;;9.00;3.13;;;;;;;;;;5021114;28;20462;-69
2023/07/13 10:04:28;;;;;;;4.15;2.65;;;;;;;;;;5022375;28;20099;-69
2023/07/13 10:07:06;;;;;;;5.07;3.00;;;;;;;;;;5030009;28;20073;-69
2023/07/13 10:09:32;;;;;;;8.98;2.95;;;;;;;;;;5026883;28;20881;-69
2023/07/13 10:11:57;;;;;;;5.50;3.10;;;;;;;;;;5023175;28;20125;-69
2023/07/13 10:14:25;;;;;;;10.10;3.22;;;;;;;;;;5023036;28;20125;-69
2023/07/13 10:16:56;;;;;;;9.57;3.20;;;;;;;;;;5023253;28;20051;-69
2023/07/13 10:19:26;;;;;;;6.72;2.72;;;;;;;;;;5019308;28;20124;-68
2023/07/13 10:22:01;;;;;;;6.85;3.03;;;;;;;;;;5018073;28;20050;-70
2023/07/13 10:24:31;;;;;;;6.20;3.13;;;;;;;;;;5015726;28;20037;-70
2023/07/13 10:27:15;;;;;;;7.25;3.17;;;;;;;;;;5022188;28;20099;-70
2023/07/13 10:30:00;;;;;;;;;;;;;;;;;;5011802;28;20184;-70
2023/07/13 10:32:26;;;;;;;9.48;3.40;;;;;;;;;;5022813;28;19917;-70
2023/07/13 10:34:52;;;;;;;5.63;3.00;;;;;;;;;;5023292;28;20116;-70
2023/07/13 10:37:24;;;;;;;9.55;2.90;;;;;;;;;;5023229;28;20037;-70
2023/07/13 10:39:53;;;;;;;6.23;3.00;;;;;;;;;;5022738;28;20206;-70
2023/07/13 10:42:29;;;;;;;6.78;2.85;;;;;;;;;;5010336;28;20041;-70
2023/07/13 10:44:54;;;;;;;6.40;3.00;;;;;;;;;;5035273;28;20036;-70
2023/07/13 10:47:20;;;;;;;5.75;2.50;;;;;;;;;;5022080;28;20570;-70
2023/07/13 10:49:48;;;;;;;5.03;2.28;;;;;;;;;;5021236;28;20037;-70
2023/07/13 10:52:46;;;;;;;7.47;2.78;;;;;;;;;;5015448;28;20044;-70
2023/07/13 10:55:40;;;;;;;6.05;2.30;;;;;;;;;;5014046;28;20598;-70
2023/07/13 10:58:19;;;;;;;3.25;2.00;;;;;;;;;;5014899;28;20053;-70
2023/07/13 11:00:53;;;;;;;4.00;1.98;;;;;;;;;;5016040;28;20041;-70
2023/07/13 11:03:22;;;;;;;2.05;1.63;;;;;;;;;;5018304;28;20583;-70
2023/07/13 11:06:04;;;;;;;4.32;2.25;;;;;;;;;;5016651;28;20045;-70
2023/07/13 11:08:37;;;;;;;4.45;1.95;;;;;;;;;;5012282;28;20068;-70
2023/07/13 11:11:02;;;;;;;4.75;1.70;;;;;;;;;;5014742;28;20577;-70
2023/07/13 11:13:47;;;;;;;3.10;1.75;;;;;;;;;;5018095;28;20029;-70
2023/07/13 11:16:33;;;;;;;5.30;2.20;;;;;;;;;;5016189;28;20056;-71
2023/07/13 11:19:02;;;;;;;3.05;2.05;;;;;;;;;;5021851;28;20092;-71
2023/07/13 11:21:30;;;;;;;6.75;1.98;;;;;;;;;;5029868;28;20697;-70
2023/07/13 11:24:03;;;;;;;6.32;2.15;;;;;;;;;;5028980;28;20507;-70
2023/07/13 11:26:37;;;;;;;;;;;;;;;;;;5020541;28;20224;-70
2023/07/13 11:29:26;;;;;;;3.80;1.70;;;;;;;;;;5023566;28;19921;-70
2023/07/13 11:31:53;;;;;;;3.22;2.20;;;;;;;;;;5030333;28;20113;-69
2023/07/13 11:34:26;;;;;;;4.70;1.95;;;;;;;;;;5029886;28;20481;-70
2023/07/13 11:36:52;;;;;;;2.67;1.20;;;;;;;;;;5022971;28;20029;-70
2023/07/13 11:39:26;;;;;;;2.80;1.63;;;;;;;;;;5023316;28;20052;-70
2023/07/13 11:42:02;;;;;;;2.97;1.50;;;;;;;;;;5022532;28;20048;-70
2023/07/13 11:44:30;;;;;;;3.85;1.60;;;;;;;;;;5052937;28;20041;-70
2023/07/13 11:47:00;;;;;;;3.42;1.73;;;;;;;;;;5018846;28;20029;-70
2023/07/13 11:49:26;;;;;;;3.53;1.50;;;;;;;;;;5023775;28;20068;-70
2023/07/13 11:51:56;;;;;;;6.03;1.63;;;;;;;;;;5025432;28;20061;-70
2023/07/13 11:54:29;;;;;;;4.38;1.50;;;;;;;;;;5018948;28;20049;-70
2023/07/13 11:57:00;;;;;;;3.90;1.58;;;;;;;;;;5018598;28;20595;-70
2023/07/13 11:59:25;;;;;;;5.63;1.33;;;;;;;;;;5021601;28;20107;-70
2023/07/13 12:01:54;;;;;;;3.83;1.75;;;;;;;;;;5019974;28;20060;-70
2023/07/13 12:04:33;;;;;;;3.70;1.40;;;;;;;;;;5014016;28;20045;-71
2023/07/13 12:07:15;;;;;;;5.63;1.42;;;;;;;;;;5055667;28;20069;-71
2023/07/13 12:09:41;;;;;;;4.30;1.60;;;;;;;;;;5011351;28;20045;-71
2023/07/13 12:12:17;;;;;;;3.35;1.58;;;;;;;;;;5013656;28;20045;-70
2023/07/13 12:14:43;;;;;;;6.50;1.65;;;;;;;;;;5017500;28;20033;-70
2023/07/13 12:17:16;;;;;;;3.15;1.60;;;;;;;;;;5020512;28;20080;-71
2023/07/13 12:19:42;;;;;;;3.28;1.58;;;;;;;;;;5018124;28;20033;-70
2023/07/13 12:22:11;;;;;;;3.40;1.70;;;;;;;;;;5022692;28;20045;-72
2023/07/13 12:24:37;;;;;;;2.28;1.45;;;;;;;;;;5017244;28;20083;-70
2023/07/13 12:27:04;;;;;;;2.53;1.52;;;;;;;;;;5009620;28;20045;-71
2023/07/13 12:29:31;;;;;;;5.30;1.70;;;;;;;;;;5015991;28;20033;-71
2023/07/13 12:31:56;;;;;;;1.88;1.33;;;;;;;;;;5019370;28;20040;-69
2023/07/13 12:34:24;;;;;;;2.53;1.50;;;;;;;;;;5026324;28;20037;-69
2023/07/13 12:36:56;;;;;;;3.35;1.25;;;;;;;;;;5024798;28;20041;-69
2023/07/13 12:39:37;;;;;;;2.28;1.38;;;;;;;;;;5014175;28;20052;-69
2023/07/13 12:42:27;;;;;;;2.03;1.10;;;;;;;;;;5015271;28;20049;-69
2023/07/13 12:45:23;;;;;;;5.85;1.33;;;;;;;;;;5033178;28;20104;-68
2023/07/13 12:47:54;;;;;;;2.22;1.10;;;;;;;;;;5023145;28;20099;-69
2023/07/13 12:50:22;;;;;;;1.40;1.30;;;;;;;;;;5011805;28;20033;-69
2023/07/13 12:52:56;;;;;;;2.40;1.38;;;;;;;;;;5025171;28;20132;-69
2023/07/13 12:55:22;;;;;;;2.40;1.40;;;;;;;;;;5018681;28;20046;-69
2023/07/13 12:57:53;;;;;;;2.33;1.25;;;;;;;;;;5030786;28;20042;-69
2023/07/13 13:00:29;;;;;;;1.88;1.40;;;;;;;;;;5021206;28;20498;-69
2023/07/13 13:02:57;;;;;;;2.97;1.40;;;;;;;;;;5025814;28;20696;-69
2023/07/13 13:05:25;;;;;;;3.80;1.60;;;;;;;;;;5025128;28;20037;-69
2023/07/13 13:07:52;;;;;;;3.10;1.52;;;;;;;;;;5025649;28;20120;-70
2023/07/13 13:10:17;;;;;;;2.58;1.40;;;;;;;;;;5022712;28;20129;-69
2023/07/13 13:12:42;;;;;;;4.18;1.60;;;;;;;;;;5025013;28;20131;-69
2023/07/13 13:15:11;;;;;;;3.13;1.92;;;;;;;;;;5025541;28;20179;-69
2023/07/13 13:17:37;;;;;;;3.65;1.52;;;;;;;;;;5011544;28;20037;-69
2023/07/13 13:20:16;;;;;;;4.03;1.70;;;;;;;;;;5023958;28;20025;-69
2023/07/13 13:22:41;;;;;;;2.75;1.80;;;;;;;;;;5023311;28;20116;-70
2023/07/13 13:25:13;;;;;;;3.08;2.00;;;;;;;;;;5023744;28;20132;-70
2023/07/13 13:27:40;;;;;;;3.47;1.92;;;;;;;;;;5024835;28;20041;-70
2023/07/13 13:30:16;;;;;;;3.90;1.90;;;;;;;;;;5020692;28;20102;-69
2023/07/13 13:32:47;;;;;;;4.18;1.92;;;;;;;;;;5021580;28;20124;-70
2023/07/13 13:35:15;;;;;;;2.28;1.70;;;;;;;;;;5010356;28;20068;-69
2023/07/13 13:37:42;;;;;;;3.78;1.80;;;;;;;;;;5015151;28;20099;-70
2023/07/13 13:40:30;;;;;;;2.42;1.50;;;;;;;;;;5017185;28;20817;-70
2023/07/13 13:45:24;;;;;;;2.80;1.60;;;;;;;;;;5036467;28;20854;-71
2023/07/13 13:47:55;;;;;;;3.85;1.83;;;;;;;;;;5024547;28;20370;-70
2023/07/13 13:50:24;;;;;;;3.80;1.90;;;;;;;;;;5010624;28;20044;-70
2023/07/13 13:53:05;;;;;;;5.93;2.53;;;;;;;;;;5013974;28;20018;-69
2023/07/13 13:55:33;;;;;;;9.75;2.22;;;;;;;;;;5020647;28;20053;-70
2023/07/13 13:58:00;;;;;;;5.88;2.00;;;;;;;;;;5007859;28;20819;-70
2023/07/13 14:00:27;;;;;;;7.95;2.05;;;;;;;;;;5017165;28;20045;-69
2023/07/13 14:02:56;;;;;;;3.17;1.80;;;;;;;;;;5021516;28;20083;-69
2023/07/13 14:05:30;;;;;;;3.88;1.70;;;;;;;;;;5019903;28;20136;-69
2023/07/13 14:08:03;;;;;;;2.50;1.85;;;;;;;;;;5013427;28;20021;-69
2023/07/13 14:10:30;;;;;;;5.70;1.80;;;;;;;;;;5039880;28;20037;-69
2023/07/13 14:13:06;;;;;;;6.90;2.47;;;;;;;;;;5027443;28;20052;-70
2023/07/13 14:15:32;;;;;;;3.15;2.05;;;;;;;;;;5023604;28;20040;-70
2023/07/13 14:17:59;;;;;;;3.65;1.77;;;;;;;;;;5024570;28;20514;-69
2023/07/13 14:20:26;;;;;;;3.03;1.80;;;;;;;;;;5027610;28;20037;-69
2023/07/13 14:22:54;;;;;;;3.58;1.83;;;;;;;;;;5033687;28;20043;-70
2023/07/13 14:25:22;;;;;;;4.38;2.05;;;;;;;;;;5030886;28;20087;-69
2023/07/13 14:27:53;;;;;;;2.97;1.67;;;;;;;;;;5021312;28;20065;-70
2023/07/13 14:30:30;;;;;;;2.65;1.60;;;;;;;;;;5022484;28;20033;-70
2023/07/13 14:32:57;;;;;;;1.67;1.40;;;;;;;;;;5010203;28;20771;-71
2023/07/13 14:35:27;;;;;;;2.60;1.67;;;;;;;;;;5020002;28;20530;-70
2023/07/13 14:38:02;;;;;;;5.57;1.67;;;;;;;;;;5016739;28;20103;-70
2023/07/13 14:40:32;;;;;;;2.75;1.50;;;;;;;;;;5011273;28;20116;-70
2023/07/13 14:42:58;;;;;;;2.67;1.33;;;;;;;;;;5015372;28;20037;-70
2023/07/13 14:45:24;;;;;;;4.63;2.00;;;;;;;;;;5010603;28;20064;-69
2023/07/13 14:47:50;;;;;;;3.22;1.58;;;;;;;;;;5015981;28;20056;-69
2023/07/13 14:50:20;;;;;;;3.05;1.63;;;;;;;;;;5010272;28;20108;-70
2023/07/13 14:52:47;;;;;;;1.75;1.50;;;;;;;;;;5023178;28;20038;-70